KBTV

Burlington International Airport

Burlington, Vermont, USA
METAR KBTV 161554Z 00000KT 10SM OVC070 M02/M04 A2969 RMK AO2 SNE29 SLP058 P0001 T10171039
Observed Flight Rules
Nov-16 @ 15:54 UTC (27 minutes ago) Visual Flight Rules
Visibility Clouds
10 miles
  • Overcast at 7,000' AGL
Temperatures Readings Precipitation
Current -2°C / 28°F
Dewpoint -4°C / 25°F
Humidity 86%
Altimeter 29.69" Hg
Pressure 1005.8 hPa
Elevation 105
Current Rain 0.01
METAR KBTV 161554Z 00000KT 10SM OVC070 M02/M04 A2969 RMK AO2 SNE29 SLP058 P0001 T10171039
Observed Flight Rules
Nov-16 @ 15:54 UTC
(27 minutes ago)
VFR
Clouds
  • Overcast at 7,000' AGL
Temperature Dewpoint
-2°C / 28°F -4°C / 25°F
Humidity Altimeter Pressure
86% 29.69" Hg 1005.8 hPa
Current Rain
0.01